sensor_id;sensor_type;location;lat;lon;timestamp;temperature;humidity
23813;DHT22;12087;45.190;5.688;2022-12-07T00:02:27;3.50;99.90
23813;DHT22;12087;45.190;5.688;2022-12-07T00:07:49;3.50;99.90
23813;DHT22;12087;45.190;5.688;2022-12-07T00:13:12;3.50;99.90
23813;DHT22;12087;45.190;5.688;2022-12-07T00:18:36;3.50;99.90
23813;DHT22;12087;45.190;5.688;2022-12-07T00:23:58;3.50;99.90
23813;DHT22;12087;45.190;5.688;2022-12-07T00:29:21;3.50;99.90
23813;DHT22;12087;45.190;5.688;2022-12-07T00:34:45;3.50;99.90
23813;DHT22;12087;45.190;5.688;2022-12-07T00:40:08;3.40;99.90
23813;DHT22;12087;45.190;5.688;2022-12-07T00:45:31;3.50;99.90
23813;DHT22;12087;45.190;5.688;2022-12-07T00:50:55;3.50;99.90
23813;DHT22;12087;45.190;5.688;2022-12-07T00:56:19;3.40;99.90
23813;DHT22;12087;45.190;5.688;2022-12-07T01:01:42;3.40;99.90
23813;DHT22;12087;45.190;5.688;2022-12-07T01:07:06;3.40;99.90
23813;DHT22;12087;45.190;5.688;2022-12-07T01:12:28;3.40;99.90
23813;DHT22;12087;45.190;5.688;2022-12-07T01:17:50;3.30;99.90
23813;DHT22;12087;45.190;5.688;2022-12-07T01:23:14;3.30;99.90
23813;DHT22;12087;45.190;5.688;2022-12-07T01:28:36;3.30;99.90
23813;DHT22;12087;45.190;5.688;2022-12-07T01:33:59;3.30;99.90
23813;DHT22;12087;45.190;5.688;2022-12-07T01:39:23;3.30;99.90
23813;DHT22;12087;45.190;5.688;2022-12-07T01:50:45;3.30;99.90
23813;DHT22;12087;45.190;5.688;2022-12-07T01:56:14;3.30;99.90
23813;DHT22;12087;45.190;5.688;2022-12-07T02:01:38;3.30;99.90
23813;DHT22;12087;45.190;5.688;2022-12-07T02:07:01;3.30;99.90
23813;DHT22;12087;45.190;5.688;2022-12-07T02:12:26;3.30;99.90
23813;DHT22;12087;45.190;5.688;2022-12-07T02:17:55;3.40;99.90
23813;DHT22;12087;45.190;5.688;2022-12-07T02:23:46;3.40;99.90
23813;DHT22;12087;45.190;5.688;2022-12-07T02:29:23;3.40;99.90
23813;DHT22;12087;45.190;5.688;2022-12-07T02:34:49;3.40;99.90
23813;DHT22;12087;45.190;5.688;2022-12-07T02:40:17;3.40;99.90
23813;DHT22;12087;45.190;5.688;2022-12-07T02:45:42;3.40;99.90
23813;DHT22;12087;45.190;5.688;2022-12-07T02:51:06;3.40;99.90
23813;DHT22;12087;45.190;5.688;2022-12-07T02:56:38;3.40;99.90
23813;DHT22;12087;45.190;5.688;2022-12-07T03:02:10;3.40;99.90
23813;DHT22;12087;45.190;5.688;2022-12-07T03:07:45;3.40;99.90
23813;DHT22;12087;45.190;5.688;2022-12-07T03:13:14;3.40;99.90
23813;DHT22;12087;45.190;5.688;2022-12-07T03:18:45;3.40;99.90
23813;DHT22;12087;45.190;5.688;2022-12-07T03:24:13;3.50;99.90
23813;DHT22;12087;45.190;5.688;2022-12-07T03:29:41;3.50;99.90
23813;DHT22;12087;45.190;5.688;2022-12-07T03:35:11;3.50;99.90
23813;DHT22;12087;45.190;5.688;2022-12-07T03:40:39;3.50;99.90
23813;DHT22;12087;45.190;5.688;2022-12-07T03:46:10;3.60;99.90
23813;DHT22;12087;45.190;5.688;2022-12-07T03:51:42;3.60;99.90
23813;DHT22;12087;45.190;5.688;2022-12-07T03:57:06;3.60;99.90
23813;DHT22;12087;45.190;5.688;2022-12-07T04:02:30;3.70;99.90
23813;DHT22;12087;45.190;5.688;2022-12-07T04:07:53;3.70;99.90
23813;DHT22;12087;45.190;5.688;2022-12-07T04:13:16;3.80;99.90
23813;DHT22;12087;45.190;5.688;2022-12-07T04:18:38;3.80;99.90
23813;DHT22;12087;45.190;5.688;2022-12-07T04:24:02;3.80;99.90
23813;DHT22;12087;45.190;5.688;2022-12-07T04:29:24;3.90;99.90
23813;DHT22;12087;45.190;5.688;2022-12-07T04:34:47;4.00;99.90
23813;DHT22;12087;45.190;5.688;2022-12-07T04:40:11;4.00;99.90
23813;DHT22;12087;45.190;5.688;2022-12-07T04:45:35;4.00;99.90
23813;DHT22;12087;45.190;5.688;2022-12-07T04:50:57;4.00;99.90
23813;DHT22;12087;45.190;5.688;2022-12-07T04:56:21;4.00;99.90
23813;DHT22;12087;45.190;5.688;2022-12-07T05:01:43;4.00;99.90
23813;DHT22;12087;45.190;5.688;2022-12-07T05:07:06;4.00;99.90
23813;DHT22;12087;45.190;5.688;2022-12-07T05:12:30;4.00;99.90
23813;DHT22;12087;45.190;5.688;2022-12-07T05:17:52;4.10;99.90
23813;DHT22;12087;45.190;5.688;2022-12-07T05:23:14;4.00;99.90
23813;DHT22;12087;45.190;5.688;2022-12-07T05:28:38;4.00;99.90
23813;DHT22;12087;45.190;5.688;2022-12-07T05:34:00;4.10;99.90
23813;DHT22;12087;45.190;5.688;2022-12-07T05:39:22;4.10;99.90
23813;DHT22;12087;45.190;5.688;2022-12-07T05:44:46;4.10;99.90
23813;DHT22;12087;45.190;5.688;2022-12-07T05:50:09;4.00;99.90
23813;DHT22;12087;45.190;5.688;2022-12-07T05:55:31;4.00;99.90
23813;DHT22;12087;45.190;5.688;2022-12-07T06:00:56;4.00;99.90
23813;DHT22;12087;45.190;5.688;2022-12-07T06:06:18;3.90;99.90
23813;DHT22;12087;45.190;5.688;2022-12-07T06:11:40;4.00;99.90
23813;DHT22;12087;45.190;5.688;2022-12-07T06:17:21;3.90;99.90
23813;DHT22;12087;45.190;5.688;2022-12-07T06:22:43;3.90;99.90
23813;DHT22;12087;45.190;5.688;2022-12-07T06:28:06;4.00;99.90
23813;DHT22;12087;45.190;5.688;2022-12-07T06:33:29;4.00;99.90
23813;DHT22;12087;45.190;5.688;2022-12-07T06:38:52;4.00;99.90
23813;DHT22;12087;45.190;5.688;2022-12-07T06:44:14;4.00;99.90
23813;DHT22;12087;45.190;5.688;2022-12-07T06:49:38;3.90;99.90
23813;DHT22;12087;45.190;5.688;2022-12-07T06:55:00;3.90;99.90
23813;DHT22;12087;45.190;5.688;2022-12-07T07:00:22;3.90;99.90
23813;DHT22;12087;45.190;5.688;2022-12-07T07:05:46;3.90;99.90
23813;DHT22;12087;45.190;5.688;2022-12-07T07:11:09;3.80;99.90
23813;DHT22;12087;45.190;5.688;2022-12-07T07:16:31;3.80;99.90
23813;DHT22;12087;45.190;5.688;2022-12-07T07:21:55;3.80;99.90
23813;DHT22;12087;45.190;5.688;2022-12-07T07:27:17;3.80;99.90
23813;DHT22;12087;45.190;5.688;2022-12-07T07:32:39;3.80;99.90
23813;DHT22;12087;45.190;5.688;2022-12-07T07:38:03;3.80;99.90
23813;DHT22;12087;45.190;5.688;2022-12-07T07:43:25;3.80;99.90
23813;DHT22;12087;45.190;5.688;2022-12-07T07:48:48;3.90;99.90
23813;DHT22;12087;45.190;5.688;2022-12-07T07:54:11;3.90;99.90
23813;DHT22;12087;45.190;5.688;2022-12-07T07:59:34;3.90;99.90
23813;DHT22;12087;45.190;5.688;2022-12-07T08:04:56;3.90;99.90
23813;DHT22;12087;45.190;5.688;2022-12-07T08:10:20;4.00;99.90
23813;DHT22;12087;45.190;5.688;2022-12-07T08:15:44;4.00;99.90
23813;DHT22;12087;45.190;5.688;2022-12-07T08:21:09;4.00;99.90
23813;DHT22;12087;45.190;5.688;2022-12-07T08:26:34;4.10;99.90
23813;DHT22;12087;45.190;5.688;2022-12-07T08:31:56;4.10;99.90
23813;DHT22;12087;45.190;5.688;2022-12-07T08:37:18;4.10;99.90
23813;DHT22;12087;45.190;5.688;2022-12-07T08:42:42;4.10;99.90
23813;DHT22;12087;45.190;5.688;2022-12-07T08:48:08;4.10;99.90
23813;DHT22;12087;45.190;5.688;2022-12-07T08:53:31;4.10;99.90
23813;DHT22;12087;45.190;5.688;2022-12-07T08:58:57;4.10;99.90
23813;DHT22;12087;45.190;5.688;2022-12-07T09:04:20;4.10;99.90
23813;DHT22;12087;45.190;5.688;2022-12-07T09:09:42;4.10;99.90
23813;DHT22;12087;45.190;5.688;2022-12-07T09:15:07;4.10;99.90
23813;DHT22;12087;45.190;5.688;2022-12-07T09:20:29;4.10;99.90
23813;DHT22;12087;45.190;5.688;2022-12-07T09:25:52;4.20;99.90
23813;DHT22;12087;45.190;5.688;2022-12-07T09:31:15;4.30;99.90
23813;DHT22;12087;45.190;5.688;2022-12-07T09:36:38;4.30;99.90
23813;DHT22;12087;45.190;5.688;2022-12-07T09:42:03;4.30;99.90
23813;DHT22;12087;45.190;5.688;2022-12-07T09:47:28;4.30;99.90
23813;DHT22;12087;45.190;5.688;2022-12-07T09:52:51;4.40;99.90
23813;DHT22;12087;45.190;5.688;2022-12-07T09:58:20;4.50;99.90
23813;DHT22;12087;45.190;5.688;2022-12-07T10:03:49;4.60;99.90
23813;DHT22;12087;45.190;5.688;2022-12-07T10:09:13;4.60;99.90
23813;DHT22;12087;45.190;5.688;2022-12-07T10:14:37;4.70;99.90
23813;DHT22;12087;45.190;5.688;2022-12-07T10:20:18;4.70;99.90
23813;DHT22;12087;45.190;5.688;2022-12-07T10:25:41;4.80;99.90
23813;DHT22;12087;45.190;5.688;2022-12-07T10:31:15;4.80;99.90
23813;DHT22;12087;45.190;5.688;2022-12-07T10:36:40;4.80;99.90
23813;DHT22;12087;45.190;5.688;2022-12-07T10:42:03;4.80;99.90
23813;DHT22;12087;45.190;5.688;2022-12-07T10:47:33;4.80;99.90
23813;DHT22;12087;45.190;5.688;2022-12-07T10:53:28;4.80;99.90
23813;DHT22;12087;45.190;5.688;2022-12-07T10:59:03;4.90;99.90
23813;DHT22;12087;45.190;5.688;2022-12-07T11:04:35;4.90;99.90
23813;DHT22;12087;45.190;5.688;2022-12-07T11:10:03;4.90;99.90
23813;DHT22;12087;45.190;5.688;2022-12-07T11:15:35;5.00;99.90
23813;DHT22;12087;45.190;5.688;2022-12-07T11:21:08;5.10;99.90
23813;DHT22;12087;45.190;5.688;2022-12-07T11:26:48;5.10;99.90
23813;DHT22;12087;45.190;5.688;2022-12-07T11:32:17;5.10;99.90
23813;DHT22;12087;45.190;5.688;2022-12-07T11:37:44;5.10;99.90
23813;DHT22;12087;45.190;5.688;2022-12-07T11:43:15;5.10;99.90
23813;DHT22;12087;45.190;5.688;2022-12-07T11:48:43;5.10;99.90
23813;DHT22;12087;45.190;5.688;2022-12-07T11:54:14;5.10;99.90
23813;DHT22;12087;45.190;5.688;2022-12-07T11:59:42;5.10;99.90
23813;DHT22;12087;45.190;5.688;2022-12-07T12:05:15;5.20;99.90
23813;DHT22;12087;45.190;5.688;2022-12-07T12:10:45;5.20;99.90
23813;DHT22;12087;45.190;5.688;2022-12-07T12:16:28;5.20;99.90
23813;DHT22;12087;45.190;5.688;2022-12-07T12:21:59;5.20;99.90
23813;DHT22;12087;45.190;5.688;2022-12-07T12:27:26;5.20;99.90
23813;DHT22;12087;45.190;5.688;2022-12-07T12:32:52;5.20;99.90
23813;DHT22;12087;45.190;5.688;2022-12-07T12:38:29;5.20;99.90
23813;DHT22;12087;45.190;5.688;2022-12-07T12:43:52;5.20;99.90
23813;DHT22;12087;45.190;5.688;2022-12-07T12:49:34;5.20;99.90
23813;DHT22;12087;45.190;5.688;2022-12-07T12:55:00;5.30;99.90
23813;DHT22;12087;45.190;5.688;2022-12-07T13:00:24;5.30;99.90
23813;DHT22;12087;45.190;5.688;2022-12-07T13:06:17;5.30;99.90
23813;DHT22;12087;45.190;5.688;2022-12-07T13:11:43;5.30;99.90
23813;DHT22;12087;45.190;5.688;2022-12-07T13:17:08;5.30;99.90
23813;DHT22;12087;45.190;5.688;2022-12-07T13:22:48;5.30;99.90
23813;DHT22;12087;45.190;5.688;2022-12-07T13:28:37;5.40;99.90
23813;DHT22;12087;45.190;5.688;2022-12-07T13:47:15;5.40;99.90
23813;DHT22;12087;45.190;5.688;2022-12-07T13:52:44;5.40;99.90
23813;DHT22;12087;45.190;5.688;2022-12-07T13:58:08;5.40;99.90
23813;DHT22;12087;45.190;5.688;2022-12-07T14:03:35;5.40;99.90
23813;DHT22;12087;45.190;5.688;2022-12-07T14:09:14;5.40;99.90
23813;DHT22;12087;45.190;5.688;2022-12-07T14:14:38;5.40;99.90
23813;DHT22;12087;45.190;5.688;2022-12-07T14:20:31;5.50;99.90
23813;DHT22;12087;45.190;5.688;2022-12-07T14:25:54;5.50;99.90
23813;DHT22;12087;45.190;5.688;2022-12-07T14:31:18;5.50;99.90
23813;DHT22;12087;45.190;5.688;2022-12-07T14:36:44;5.40;99.90
23813;DHT22;12087;45.190;5.688;2022-12-07T14:42:07;5.50;99.90
23813;DHT22;12087;45.190;5.688;2022-12-07T14:47:29;5.50;99.90
23813;DHT22;12087;45.190;5.688;2022-12-07T14:52:56;5.50;99.90
23813;DHT22;12087;45.190;5.688;2022-12-07T14:58:19;5.50;99.90
23813;DHT22;12087;45.190;5.688;2022-12-07T15:03:41;5.50;99.90
23813;DHT22;12087;45.190;5.688;2022-12-07T15:09:05;5.50;99.90
23813;DHT22;12087;45.190;5.688;2022-12-07T15:14:27;5.50;99.90
23813;DHT22;12087;45.190;5.688;2022-12-07T15:53:30;5.50;99.90
23813;DHT22;12087;45.190;5.688;2022-12-07T15:58:53;5.50;99.90
23813;DHT22;12087;45.190;5.688;2022-12-07T16:04:15;5.50;99.90
23813;DHT22;12087;45.190;5.688;2022-12-07T16:09:39;5.50;99.90
23813;DHT22;12087;45.190;5.688;2022-12-07T16:15:01;5.50;99.90
23813;DHT22;12087;45.190;5.688;2022-12-07T16:20:24;5.50;99.90
23813;DHT22;12087;45.190;5.688;2022-12-07T16:25:47;5.50;99.90
23813;DHT22;12087;45.190;5.688;2022-12-07T16:31:12;5.50;99.90
23813;DHT22;12087;45.190;5.688;2022-12-07T16:36:35;5.50;99.90
23813;DHT22;12087;45.190;5.688;2022-12-07T16:41:59;5.50;99.90
23813;DHT22;12087;45.190;5.688;2022-12-07T16:47:21;5.50;99.90
23813;DHT22;12087;45.190;5.688;2022-12-07T16:52:44;5.50;99.90
23813;DHT22;12087;45.190;5.688;2022-12-07T16:58:08;5.40;99.90
23813;DHT22;12087;45.190;5.688;2022-12-07T17:03:30;5.40;99.90
23813;DHT22;12087;45.190;5.688;2022-12-07T17:08:52;5.50;99.90
23813;DHT22;12087;45.190;5.688;2022-12-07T17:14:16;5.40;99.90
23813;DHT22;12087;45.190;5.688;2022-12-07T17:19:56;5.40;99.90
23813;DHT22;12087;45.190;5.688;2022-12-07T17:25:19;5.40;99.90
23813;DHT22;12087;45.190;5.688;2022-12-07T17:30:42;5.50;99.90
23813;DHT22;12087;45.190;5.688;2022-12-07T17:36:09;5.50;99.90
23813;DHT22;12087;45.190;5.688;2022-12-07T17:41:32;5.50;99.90
23813;DHT22;12087;45.190;5.688;2022-12-07T17:47:13;5.40;99.90
23813;DHT22;12087;45.190;5.688;2022-12-07T17:52:43;5.40;99.90
23813;DHT22;12087;45.190;5.688;2022-12-07T17:58:23;5.40;99.90
23813;DHT22;12087;45.190;5.688;2022-12-07T18:03:47;5.40;99.90
23813;DHT22;12087;45.190;5.688;2022-12-07T18:09:11;5.40;99.90
23813;DHT22;12087;45.190;5.688;2022-12-07T18:14:33;5.30;99.90
23813;DHT22;12087;45.190;5.688;2022-12-07T18:19:57;5.40;99.90
23813;DHT22;12087;45.190;5.688;2022-12-07T18:25:21;5.30;99.90
23813;DHT22;12087;45.190;5.688;2022-12-07T18:30:43;5.30;99.90
23813;DHT22;12087;45.190;5.688;2022-12-07T18:36:12;5.30;99.90
23813;DHT22;12087;45.190;5.688;2022-12-07T18:41:35;5.30;99.90
23813;DHT22;12087;45.190;5.688;2022-12-07T18:46:58;5.30;99.90
23813;DHT22;12087;45.190;5.688;2022-12-07T18:52:29;5.30;99.90
23813;DHT22;12087;45.190;5.688;2022-12-07T18:57:52;5.30;99.90
23813;DHT22;12087;45.190;5.688;2022-12-07T19:03:25;5.30;99.90
23813;DHT22;12087;45.190;5.688;2022-12-07T19:08:49;5.30;99.90
23813;DHT22;12087;45.190;5.688;2022-12-07T19:14:20;5.30;99.90
23813;DHT22;12087;45.190;5.688;2022-12-07T19:19:44;5.30;99.90
23813;DHT22;12087;45.190;5.688;2022-12-07T19:25:08;5.30;99.90
23813;DHT22;12087;45.190;5.688;2022-12-07T19:30:31;5.30;99.90
23813;DHT22;12087;45.190;5.688;2022-12-07T19:35:53;5.40;99.90
23813;DHT22;12087;45.190;5.688;2022-12-07T19:41:17;5.40;99.90
23813;DHT22;12087;45.190;5.688;2022-12-07T19:46:56;5.40;99.90
23813;DHT22;12087;45.190;5.688;2022-12-07T19:52:19;5.40;99.90
23813;DHT22;12087;45.190;5.688;2022-12-07T19:57:43;5.30;99.90
23813;DHT22;12087;45.190;5.688;2022-12-07T20:03:05;5.40;99.90
23813;DHT22;12087;45.190;5.688;2022-12-07T20:08:27;5.40;99.90
23813;DHT22;12087;45.190;5.688;2022-12-07T20:13:52;5.40;99.90
23813;DHT22;12087;45.190;5.688;2022-12-07T20:19:52;5.40;99.90
23813;DHT22;12087;45.190;5.688;2022-12-07T20:25:18;5.40;99.90
23813;DHT22;12087;45.190;5.688;2022-12-07T20:30:47;5.40;99.90
23813;DHT22;12087;45.190;5.688;2022-12-07T20:36:09;5.40;99.90
23813;DHT22;12087;45.190;5.688;2022-12-07T20:41:32;5.40;99.90
23813;DHT22;12087;45.190;5.688;2022-12-07T20:47:13;5.30;99.90
23813;DHT22;12087;45.190;5.688;2022-12-07T20:52:36;5.30;99.90
23813;DHT22;12087;45.190;5.688;2022-12-07T20:57:58;5.30;99.90
23813;DHT22;12087;45.190;5.688;2022-12-07T21:03:22;5.30;99.90
23813;DHT22;12087;45.190;5.688;2022-12-07T21:08:44;5.30;99.90
23813;DHT22;12087;45.190;5.688;2022-12-07T21:14:07;5.30;99.90
23813;DHT22;12087;45.190;5.688;2022-12-07T21:19:31;5.30;99.90
23813;DHT22;12087;45.190;5.688;2022-12-07T21:24:54;5.30;99.90
23813;DHT22;12087;45.190;5.688;2022-12-07T21:30:16;5.30;99.90
23813;DHT22;12087;45.190;5.688;2022-12-07T21:35:40;5.30;99.90
23813;DHT22;12087;45.190;5.688;2022-12-07T21:41:10;5.30;99.90
23813;DHT22;12087;45.190;5.688;2022-12-07T21:46:33;5.30;99.90
23813;DHT22;12087;45.190;5.688;2022-12-07T21:51:56;5.30;99.90
23813;DHT22;12087;45.190;5.688;2022-12-07T21:57:19;5.30;99.90
23813;DHT22;12087;45.190;5.688;2022-12-07T22:02:41;5.30;99.90
23813;DHT22;12087;45.190;5.688;2022-12-07T22:08:05;5.30;99.90
23813;DHT22;12087;45.190;5.688;2022-12-07T22:13:27;5.30;99.90
23813;DHT22;12087;45.190;5.688;2022-12-07T22:19:12;5.30;99.90
23813;DHT22;12087;45.190;5.688;2022-12-07T22:24:35;5.20;99.90
23813;DHT22;12087;45.190;5.688;2022-12-07T22:29:58;5.20;99.90
23813;DHT22;12087;45.190;5.688;2022-12-07T22:35:20;5.20;99.90
23813;DHT22;12087;45.190;5.688;2022-12-07T22:40:44;5.10;99.90
23813;DHT22;12087;45.190;5.688;2022-12-07T22:46:06;5.10;99.90
23813;DHT22;12087;45.190;5.688;2022-12-07T22:51:30;5.10;99.90
23813;DHT22;12087;45.190;5.688;2022-12-07T22:56:54;5.10;99.90
23813;DHT22;12087;45.190;5.688;2022-12-07T23:02:16;5.10;99.90
23813;DHT22;12087;45.190;5.688;2022-12-07T23:07:38;5.00;99.90
23813;DHT22;12087;45.190;5.688;2022-12-07T23:13:03;5.00;99.90
23813;DHT22;12087;45.190;5.688;2022-12-07T23:18:43;5.00;99.90
23813;DHT22;12087;45.190;5.688;2022-12-07T23:24:06;4.90;99.90
23813;DHT22;12087;45.190;5.688;2022-12-07T23:29:29;4.90;99.90
23813;DHT22;12087;45.190;5.688;2022-12-07T23:34:52;4.90;99.90
23813;DHT22;12087;45.190;5.688;2022-12-07T23:40:14;4.90;99.90
23813;DHT22;12087;45.190;5.688;2022-12-07T23:45:38;4.80;99.90
23813;DHT22;12087;45.190;5.688;2022-12-07T23:51:00;4.80;99.90
23813;DHT22;12087;45.190;5.688;2022-12-07T23:56:24;4.80;99.90
